createdAt,value
2023-03-25T00:00:17.207Z,83.15
2023-03-25T00:02:45.544Z,83.43
2023-03-25T00:05:14.909Z,83.48
2023-03-25T00:07:46.260Z,81.93
2023-03-25T00:10:14.021Z,81.86
2023-03-25T00:12:41.104Z,80.90
2023-03-25T00:15:08.629Z,81.25
2023-03-25T00:17:36.687Z,80.63
2023-03-25T00:20:09.796Z,80.22
2023-03-25T00:22:40.831Z,79.54
2023-03-25T00:25:09.471Z,80.26
2023-03-25T00:27:36.689Z,80.00
2023-03-25T00:30:04.130Z,80.43
2023-03-25T00:32:30.971Z,81.00
2023-03-25T00:34:57.699Z,80.67
2023-03-25T00:37:25.505Z,81.04
2023-03-25T00:39:52.300Z,80.19
2023-03-25T00:42:26.200Z,79.54
2023-03-25T00:44:53.733Z,78.90
2023-03-25T00:47:22.343Z,79.20
2023-03-25T00:49:49.986Z,78.31
2023-03-25T00:52:16.836Z,77.51
2023-03-25T00:54:43.984Z,78.56
2023-03-25T00:57:10.720Z,78.38
2023-03-25T00:59:37.379Z,77.83
2023-03-25T01:02:06.660Z,77.40
2023-03-25T01:04:35.020Z,77.76
2023-03-25T01:07:03.211Z,78.04
2023-03-25T01:09:30.366Z,77.95
2023-03-25T01:11:57.455Z,78.21
2023-03-25T01:14:27.319Z,77.18
2023-03-25T01:16:54.647Z,77.62
2023-03-25T01:19:21.896Z,77.92
2023-03-25T01:21:49.330Z,77.43
2023-03-25T01:24:16.247Z,77.56
2023-03-25T01:26:43.715Z,77.59
2023-03-25T01:29:11.318Z,76.69
2023-03-25T01:31:38.208Z,76.81
2023-03-25T01:34:05.339Z,77.56
2023-03-25T01:36:32.122Z,77.82
2023-03-25T01:38:59.876Z,78.57
2023-03-25T01:41:35.752Z,78.41
2023-03-25T01:44:08.621Z,78.57
2023-03-25T01:46:36.048Z,78.86
2023-03-25T01:49:05.314Z,78.90
2023-03-25T01:51:35.552Z,79.55
2023-03-25T01:54:02.545Z,79.00
2023-03-25T01:56:33.864Z,79.27
2023-03-25T01:59:05.186Z,79.92
2023-03-25T02:01:32.305Z,80.54
2023-03-25T02:04:03.116Z,79.74
2023-03-25T02:07:07.281Z,81.39
2023-03-25T02:09:34.177Z,81.40
2023-03-25T02:12:01.640Z,81.73
2023-03-25T02:14:31.200Z,81.45
2023-03-25T02:17:09.318Z,79.15
2023-03-25T02:20:06.752Z,78.57
2023-03-25T02:22:49.868Z,76.39
2023-03-25T02:25:47.884Z,76.16
2023-03-25T02:28:25.778Z,76.82
2023-03-25T02:31:04.466Z,75.24
2023-03-25T02:33:40.229Z,76.10
2023-03-25T02:36:30.396Z,76.23
2023-03-25T02:39:13.497Z,76.93
2023-03-25T02:42:01.830Z,76.51
2023-03-25T02:44:34.845Z,76.06
2023-03-25T02:47:05.555Z,76.60
2023-03-25T02:49:36.311Z,76.65
2023-03-25T02:52:33.684Z,77.34
2023-03-25T02:55:04.988Z,76.78
2023-03-25T02:57:35.199Z,76.70
2023-03-25T03:00:08.244Z,76.83
2023-03-25T03:02:35.006Z,78.16
2023-03-25T03:05:01.905Z,77.98
2023-03-25T03:07:28.655Z,77.35
2023-03-25T03:10:04.981Z,76.31
2023-03-25T03:12:53.674Z,76.34
2023-03-25T03:16:06.704Z,76.82
2023-03-25T03:18:57.309Z,73.88
2023-03-25T03:21:30.045Z,76.52
2023-03-25T03:24:00.920Z,76.46
2023-03-25T03:26:38.587Z,77.46
2023-03-25T03:29:11.144Z,77.35
2023-03-25T03:31:48.910Z,78.17
2023-03-25T03:34:48.763Z,77.94
2023-03-25T03:37:19.598Z,77.68
2023-03-25T03:39:47.970Z,78.14
2023-03-25T03:42:24.659Z,78.29
2023-03-25T03:44:54.490Z,77.67
2023-03-25T03:47:27.865Z,77.75
2023-03-25T03:50:00.479Z,76.68
2023-03-25T03:52:52.816Z,76.43
2023-03-25T03:55:29.922Z,76.30
2023-03-25T03:58:07.758Z,76.36
2023-03-25T04:01:03.161Z,75.62
2023-03-25T04:03:35.044Z,75.90
2023-03-25T04:06:08.083Z,75.58
2023-03-25T04:08:42.867Z,76.22
2023-03-25T04:11:18.551Z,75.05
2023-03-25T04:13:47.254Z,75.10
2023-03-25T04:16:14.198Z,75.14
2023-03-25T04:18:43.478Z,75.25
2023-03-25T04:21:10.195Z,74.81
2023-03-25T04:23:37.818Z,74.73
2023-03-25T04:26:04.651Z,74.57
2023-03-25T04:28:31.791Z,74.83
2023-03-25T04:31:00.525Z,74.74
2023-03-25T04:33:31.897Z,74.95
2023-03-25T04:36:01.985Z,74.95
2023-03-25T04:38:29.425Z,74.26
2023-03-25T04:40:56.182Z,74.07
2023-03-25T04:43:22.943Z,73.70
2023-03-25T04:45:54.333Z,74.03
2023-03-25T04:48:26.048Z,73.58
2023-03-25T04:50:52.835Z,73.92
2023-03-25T04:53:19.499Z,74.06
2023-03-25T04:55:49.409Z,74.09
2023-03-25T04:58:16.484Z,74.13
2023-03-25T05:00:44.447Z,73.54
2023-03-25T05:03:11.686Z,73.01
2023-03-25T05:05:38.848Z,72.48
2023-03-25T05:08:05.645Z,71.93
2023-03-25T05:10:32.418Z,72.34
2023-03-25T05:13:00.221Z,71.91
2023-03-25T05:15:28.294Z,72.16
2023-03-25T05:17:55.238Z,71.85
2023-03-25T05:20:22.579Z,71.38
2023-03-25T05:22:49.242Z,71.06
2023-03-25T05:25:15.982Z,71.16
2023-03-25T05:27:42.793Z,70.91
2023-03-25T05:30:10.334Z,71.00
2023-03-25T05:32:37.370Z,70.19
2023-03-25T05:35:04.561Z,70.19
2023-03-25T05:37:31.555Z,71.05
2023-03-25T05:39:58.295Z,70.01
2023-03-25T05:42:25.563Z,70.68
2023-03-25T05:44:53.396Z,70.65
2023-03-25T05:47:24.877Z,70.34
2023-03-25T05:49:52.691Z,70.39
2023-03-25T05:52:24.853Z,70.01
2023-03-25T05:54:51.835Z,70.49
2023-03-25T05:57:18.967Z,71.19
2023-03-25T05:59:46.258Z,71.79
2023-03-25T06:02:14.609Z,71.97
2023-03-25T06:04:41.515Z,72.28
2023-03-25T06:07:20.184Z,72.25
2023-03-25T06:09:47.895Z,71.25
2023-03-25T06:12:16.702Z,71.91
2023-03-25T06:14:45.420Z,72.05
2023-03-25T06:17:19.010Z,72.06
2023-03-25T06:19:45.753Z,72.48
2023-03-25T06:22:12.461Z,72.71
2023-03-25T06:24:45.145Z,73.16
2023-03-25T06:27:17.463Z,72.72
2023-03-25T06:29:44.719Z,72.43
2023-03-25T06:32:13.251Z,72.28
2023-03-25T06:34:42.839Z,72.32
2023-03-25T06:37:10.361Z,73.24
2023-03-25T06:39:39.813Z,73.65
2023-03-25T06:42:15.443Z,73.67
2023-03-25T06:44:55.704Z,73.06
2023-03-25T06:47:42.777Z,73.16
2023-03-25T06:50:09.771Z,73.27
2023-03-25T06:52:37.099Z,73.02
2023-03-25T06:55:04.535Z,72.50
2023-03-25T06:57:31.252Z,72.44
2023-03-25T06:59:58.025Z,71.99
2023-03-25T07:02:24.813Z,71.71
2023-03-25T07:04:51.676Z,71.38
2023-03-25T07:07:18.448Z,70.85
2023-03-25T07:09:45.177Z,71.30
2023-03-25T07:12:11.884Z,71.26
2023-03-25T07:14:38.644Z,71.20
2023-03-25T07:17:06.226Z,71.13
2023-03-25T07:19:32.993Z,70.89
2023-03-25T07:21:59.790Z,71.04
2023-03-25T07:24:26.572Z,70.72
2023-03-25T07:26:53.336Z,70.77
2023-03-25T07:29:24.417Z,70.88
2023-03-25T07:31:51.196Z,70.55
2023-03-25T07:34:17.989Z,70.99
2023-03-25T07:36:44.842Z,70.62
2023-03-25T07:39:11.542Z,70.51
2023-03-25T07:41:38.297Z,70.53
2023-03-25T07:44:22.017Z,70.25
2023-03-25T07:46:49.874Z,70.78
2023-03-25T07:49:17.071Z,70.87
2023-03-25T07:51:44.711Z,70.76
2023-03-25T07:54:11.818Z,70.92
2023-03-25T07:56:38.679Z,70.79
2023-03-25T07:59:05.562Z,70.38
2023-03-25T08:01:32.329Z,69.99
2023-03-25T08:03:59.046Z,69.69
2023-03-25T08:06:26.733Z,69.96
2023-03-25T08:08:53.542Z,70.12
2023-03-25T08:11:20.268Z,70.08
2023-03-25T08:13:47.005Z,70.02
2023-03-25T08:16:15.301Z,69.50
2023-03-25T08:18:45.492Z,69.52
2023-03-25T08:21:13.741Z,70.10
2023-03-25T08:23:41.472Z,69.99
2023-03-25T08:26:10.256Z,70.24
2023-03-25T08:28:37.172Z,70.15
2023-03-25T08:31:13.863Z,69.82
2023-03-25T08:33:41.683Z,69.93
2023-03-25T08:36:14.055Z,69.75
2023-03-25T08:38:41.663Z,69.30
2023-03-25T08:41:08.799Z,69.23
2023-03-25T08:43:35.969Z,68.73
2023-03-25T08:46:03.023Z,69.27
2023-03-25T08:48:32.133Z,68.57
2023-03-25T08:51:01.581Z,68.73
2023-03-25T08:53:28.516Z,68.87
2023-03-25T08:55:56.999Z,68.43
2023-03-25T08:58:25.249Z,68.77
2023-03-25T09:00:55.749Z,69.08
2023-03-25T09:03:23.960Z,69.03
2023-03-25T09:05:50.982Z,69.21
2023-03-25T09:08:17.996Z,69.55
2023-03-25T09:10:44.758Z,69.08
2023-03-25T09:13:11.550Z,68.75
2023-03-25T09:15:38.350Z,68.86
2023-03-25T09:18:05.829Z,69.76
2023-03-25T09:20:33.243Z,71.40
2023-03-25T09:23:00.130Z,72.45
2023-03-25T09:25:26.909Z,73.27
2023-03-25T09:27:53.630Z,73.63
2023-03-25T09:30:20.447Z,74.54
2023-03-25T09:32:47.214Z,75.60
2023-03-25T09:35:14.001Z,75.27
2023-03-25T09:37:40.878Z,76.09
2023-03-25T09:40:08.158Z,77.60
2023-03-25T09:42:44.262Z,78.22
2023-03-25T09:45:29.567Z,77.93
2023-03-25T09:48:03.013Z,78.65
2023-03-25T09:50:31.309Z,78.57
2023-03-25T09:53:05.061Z,77.40
2023-03-25T09:55:36.876Z,77.90
2023-03-25T09:58:22.914Z,81.07
2023-03-25T10:01:00.526Z,77.81
2023-03-25T10:03:47.572Z,78.25
2023-03-25T10:06:19.734Z,78.85
2023-03-25T10:08:56.588Z,79.14
2023-03-25T10:11:37.240Z,78.33
2023-03-25T10:14:12.173Z,78.52
2023-03-25T10:16:49.152Z,77.05
2023-03-25T10:19:30.660Z,76.65
2023-03-25T10:22:16.363Z,77.27
2023-03-25T10:24:49.908Z,76.35
2023-03-25T10:27:32.327Z,78.64
2023-03-25T10:30:14.116Z,82.84
2023-03-25T10:32:46.733Z,82.59
2023-03-25T10:35:36.242Z,78.58
2023-03-25T10:38:13.909Z,76.08
2023-03-25T10:40:50.072Z,76.16
2023-03-25T10:43:29.869Z,74.74
2023-03-25T10:46:34.152Z,73.94
2023-03-25T10:49:00.948Z,74.53
2023-03-25T10:51:30.075Z,74.74
2023-03-25T10:53:58.797Z,74.68
2023-03-25T10:56:29.794Z,74.43
2023-03-25T10:58:57.761Z,73.96
2023-03-25T11:01:36.279Z,73.44
2023-03-25T11:04:05.591Z,73.66
2023-03-25T11:06:35.855Z,73.54
2023-03-25T11:09:25.617Z,73.40
2023-03-25T11:11:53.233Z,73.98
2023-03-25T11:14:24.675Z,74.15
2023-03-25T11:17:04.078Z,71.96
2023-03-25T11:19:36.862Z,71.59
2023-03-25T11:22:09.577Z,70.43
2023-03-25T11:24:42.733Z,71.13
2023-03-25T11:27:09.327Z,69.73
2023-03-25T11:29:36.636Z,70.34
2023-03-25T11:32:11.205Z,69.42
2023-03-25T11:34:41.978Z,69.42
2023-03-25T11:37:20.266Z,68.12
2023-03-25T11:39:57.033Z,68.69
2023-03-25T11:42:39.049Z,67.46
2023-03-25T11:45:06.762Z,69.11
2023-03-25T11:47:35.961Z,69.41
2023-03-25T11:50:03.908Z,70.09
2023-03-25T11:52:42.934Z,72.65
2023-03-25T11:55:26.063Z,72.76
2023-03-25T11:57:54.713Z,72.95
2023-03-25T12:00:37.109Z,72.58
2023-03-25T12:03:12.950Z,72.72
2023-03-25T12:05:41.426Z,72.79
2023-03-25T12:08:18.370Z,71.78
2023-03-25T12:11:07.994Z,71.56
2023-03-25T12:13:50.148Z,71.18
2023-03-25T12:16:41.352Z,71.72
2023-03-25T12:19:16.455Z,73.33
2023-03-25T12:21:52.543Z,73.10
2023-03-25T12:24:40.679Z,71.97
2023-03-25T12:27:44.240Z,73.82
2023-03-25T12:30:29.594Z,73.56
2023-03-25T12:33:18.136Z,76.00
2023-03-25T12:36:01.841Z,76.31
2023-03-25T12:38:36.323Z,76.20
2023-03-25T12:41:28.576Z,79.93
2023-03-25T12:44:12.247Z,79.90
2023-03-25T12:46:59.368Z,79.57
2023-03-25T12:49:48.505Z,78.61
2023-03-25T12:52:32.971Z,78.15
2023-03-25T12:55:22.594Z,78.36
2023-03-25T12:57:53.197Z,77.26
2023-03-25T13:00:28.495Z,76.99
2023-03-25T13:03:12.512Z,76.96
2023-03-25T13:06:00.543Z,74.51
2023-03-25T13:08:36.809Z,75.97
2023-03-25T13:11:08.082Z,75.28
2023-03-25T13:13:36.555Z,74.93
2023-03-25T13:16:07.871Z,75.41
2023-03-25T13:18:40.502Z,76.12
2023-03-25T13:21:25.422Z,77.43
2023-03-25T13:23:56.153Z,76.98
2023-03-25T13:26:24.950Z,76.66
2023-03-25T13:28:56.033Z,75.08
2023-03-25T13:31:27.371Z,78.13
2023-03-25T13:34:04.761Z,80.67
2023-03-25T13:36:35.723Z,81.30
2023-03-25T13:39:15.813Z,80.42
2023-03-25T13:41:44.906Z,79.74
2023-03-25T13:44:17.203Z,80.36
2023-03-25T13:46:50.148Z,80.91
2023-03-25T13:49:23.739Z,81.57
2023-03-25T13:51:50.521Z,80.27
2023-03-25T13:54:25.276Z,80.59
2023-03-25T13:57:10.754Z,81.59
2023-03-25T14:00:00.756Z,81.19
2023-03-25T14:02:33.153Z,80.28
2023-03-25T14:05:32.190Z,80.96
2023-03-25T14:08:22.138Z,81.16
2023-03-25T14:11:24.916Z,80.28
2023-03-25T14:13:59.310Z,79.11
2023-03-25T14:16:31.313Z,79.14
2023-03-25T14:19:08.998Z,80.29
2023-03-25T14:21:39.395Z,81.03
2023-03-25T14:24:11.562Z,83.24
2023-03-25T14:26:43.194Z,81.59
2023-03-25T14:29:39.285Z,81.98
2023-03-25T14:32:08.857Z,80.57
2023-03-25T14:34:39.394Z,77.70
2023-03-25T14:37:07.176Z,77.31
2023-03-25T14:39:33.802Z,76.75
2023-03-25T14:42:02.425Z,73.47
2023-03-25T14:44:33.003Z,73.33
2023-03-25T14:47:25.749Z,71.57
2023-03-25T14:50:05.946Z,68.90
2023-03-25T14:52:38.018Z,67.09
2023-03-25T14:55:10.456Z,68.13
2023-03-25T14:57:42.341Z,66.46
2023-03-25T15:00:13.517Z,68.65
2023-03-25T15:02:43.969Z,66.86
2023-03-25T15:05:17.338Z,66.22
2023-03-25T15:08:14.800Z,64.10
2023-03-25T15:10:48.608Z,65.50
2023-03-25T15:13:24.187Z,63.20
2023-03-25T15:15:52.087Z,64.78
2023-03-25T15:18:37.135Z,61.70
2023-03-25T15:21:04.741Z,63.61
2023-03-25T15:23:41.224Z,62.33
2023-03-25T15:26:19.749Z,62.50
2023-03-25T15:28:52.137Z,59.44
2023-03-25T15:31:38.409Z,61.16
2023-03-25T15:34:31.207Z,60.32
2023-03-25T15:37:06.785Z,61.23
2023-03-25T15:39:55.199Z,61.16
2023-03-25T15:43:10.212Z,59.71
2023-03-25T15:45:55.897Z,59.79
2023-03-25T15:48:54.286Z,60.16
2023-03-25T15:51:39.579Z,60.86
2023-03-25T15:54:28.438Z,60.84
2023-03-25T15:57:00.424Z,61.09
2023-03-25T16:00:16.381Z,58.69
2023-03-25T16:03:03.591Z,59.94
2023-03-25T16:05:31.333Z,61.92
2023-03-25T16:08:01.057Z,61.72
2023-03-25T16:10:32.766Z,58.73
2023-03-25T16:13:04.093Z,60.36
2023-03-25T16:15:32.717Z,60.83
2023-03-25T16:18:00.477Z,59.46
2023-03-25T16:20:28.548Z,59.09
2023-03-25T16:22:58.141Z,59.13
2023-03-25T16:25:35.540Z,56.78
2023-03-25T16:28:04.453Z,58.53
2023-03-25T16:30:39.706Z,52.51
2023-03-25T16:33:12.372Z,54.89
2023-03-25T16:35:44.473Z,54.25
2023-03-25T16:38:17.307Z,55.06
2023-03-25T16:40:46.814Z,55.56
2023-03-25T16:43:19.383Z,53.33
2023-03-25T16:45:47.520Z,53.84
2023-03-25T16:48:27.361Z,53.70
2023-03-25T16:50:55.074Z,54.67
2023-03-25T16:53:22.877Z,55.26
2023-03-25T16:56:24.555Z,53.16
2023-03-25T16:58:58.851Z,55.12
2023-03-25T17:01:26.007Z,55.90
2023-03-25T17:04:16.906Z,55.23
2023-03-25T17:06:45.485Z,56.03
2023-03-25T17:09:17.677Z,55.61
2023-03-25T17:11:45.357Z,56.10
2023-03-25T17:14:17.999Z,53.50
2023-03-25T17:16:46.257Z,55.55
2023-03-25T17:19:14.102Z,56.34
2023-03-25T17:22:04.636Z,55.50
2023-03-25T17:24:40.434Z,55.99
2023-03-25T17:27:20.805Z,54.70
2023-03-25T17:29:57.859Z,55.29
2023-03-25T17:32:24.717Z,56.53
2023-03-25T17:35:06.575Z,56.01
2023-03-25T17:37:34.028Z,55.67
2023-03-25T17:40:10.950Z,56.49
2023-03-25T17:42:40.623Z,56.83
2023-03-25T17:45:13.479Z,56.00
2023-03-25T17:47:40.366Z,57.12
2023-03-25T17:50:14.459Z,56.82
2023-03-25T17:52:41.310Z,57.57
2023-03-25T17:55:08.513Z,58.00
2023-03-25T17:57:37.421Z,57.68
2023-03-25T18:00:12.437Z,57.71
2023-03-25T18:02:40.820Z,57.71
2023-03-25T18:05:08.290Z,58.55
2023-03-25T18:07:35.033Z,58.32
2023-03-25T18:10:03.652Z,58.08
2023-03-25T18:12:32.602Z,57.64
2023-03-25T18:14:59.287Z,58.06
2023-03-25T18:17:26.815Z,58.02
2023-03-25T18:19:54.224Z,57.89
2023-03-25T18:22:21.298Z,57.63
2023-03-25T18:24:51.668Z,57.32
2023-03-25T18:27:21.091Z,57.87
2023-03-25T18:29:51.637Z,59.75
2023-03-25T18:32:19.308Z,61.69
2023-03-25T18:34:47.323Z,62.86
2023-03-25T18:37:14.698Z,62.78
2023-03-25T18:39:41.583Z,64.31
2023-03-25T18:42:08.381Z,64.71
2023-03-25T18:44:35.137Z,66.75
2023-03-25T18:47:04.710Z,69.31
2023-03-25T18:49:31.906Z,68.89
2023-03-25T18:52:02.471Z,67.09
2023-03-25T18:54:29.230Z,68.53
2023-03-25T18:56:56.832Z,69.43
2023-03-25T18:59:23.882Z,70.99
2023-03-25T19:01:51.016Z,71.43
2023-03-25T19:04:20.370Z,72.08
2023-03-25T19:06:48.249Z,73.00
2023-03-25T19:09:18.162Z,74.33
2023-03-25T19:11:44.996Z,74.11
2023-03-25T19:14:11.723Z,74.23
2023-03-25T19:16:38.496Z,74.39
2023-03-25T19:19:05.528Z,75.68
2023-03-25T19:21:34.875Z,76.70
2023-03-25T19:24:01.808Z,76.05
2023-03-25T19:26:31.686Z,77.46
2023-03-25T19:28:59.577Z,79.02
2023-03-25T19:31:30.700Z,78.71
2023-03-25T19:33:57.535Z,79.22
2023-03-25T19:36:28.204Z,78.89
2023-03-25T19:39:05.540Z,78.58
2023-03-25T19:41:34.784Z,78.15
2023-03-25T19:44:08.562Z,78.29
2023-03-25T19:46:35.574Z,78.85
2023-03-25T19:49:02.502Z,78.90
2023-03-25T19:51:29.710Z,79.21
2023-03-25T19:53:57.541Z,79.73
2023-03-25T19:56:24.341Z,80.04
2023-03-25T19:58:51.977Z,79.99
2023-03-25T20:01:23.710Z,80.08
2023-03-25T20:03:51.262Z,80.95
2023-03-25T20:06:18.237Z,81.53
2023-03-25T20:08:45.012Z,80.92
2023-03-25T20:11:12.006Z,80.92
2023-03-25T20:13:38.915Z,81.00
2023-03-25T20:16:10.356Z,81.00
2023-03-25T20:18:38.035Z,80.55
2023-03-25T20:21:09.077Z,82.31
2023-03-25T20:23:36.112Z,82.47
2023-03-25T20:26:03.238Z,82.77
2023-03-25T20:28:31.468Z,83.56
2023-03-25T20:30:58.261Z,81.68
2023-03-25T20:33:26.714Z,81.65
2023-03-25T20:35:53.836Z,82.50
2023-03-25T20:38:21.428Z,82.27
2023-03-25T20:40:48.247Z,82.17
2023-03-25T20:43:15.212Z,81.38
2023-03-25T20:45:43.370Z,82.81
2023-03-25T20:48:10.849Z,83.18
2023-03-25T20:50:38.220Z,82.37
2023-03-25T20:53:05.717Z,82.94
2023-03-25T20:55:32.512Z,83.34
2023-03-25T20:57:59.852Z,83.31
2023-03-25T21:00:30.158Z,84.10
2023-03-25T21:02:57.844Z,82.32
2023-03-25T21:05:24.726Z,81.48
2023-03-25T21:07:51.559Z,81.11
2023-03-25T21:10:20.044Z,80.76
2023-03-25T21:12:47.157Z,79.72
2023-03-25T21:15:17.540Z,78.96
2023-03-25T21:17:47.094Z,79.43
2023-03-25T21:20:13.877Z,78.80
2023-03-25T21:22:43.413Z,78.34
2023-03-25T21:25:11.794Z,78.80
2023-03-25T21:27:39.862Z,78.85
2023-03-25T21:30:09.600Z,79.40
2023-03-25T21:32:37.642Z,78.92
2023-03-25T21:35:04.784Z,78.47
2023-03-25T21:37:37.850Z,78.59
2023-03-25T21:40:08.276Z,78.94
2023-03-25T21:42:38.375Z,78.50
2023-03-25T21:45:07.644Z,78.54
2023-03-25T21:47:35.890Z,78.80
2023-03-25T21:50:06.095Z,79.25
2023-03-25T21:52:32.828Z,79.92
2023-03-25T21:54:59.681Z,81.56
2023-03-25T21:57:26.698Z,80.71
2023-03-25T21:59:56.988Z,80.80
2023-03-25T22:02:25.434Z,80.77
2023-03-25T22:04:52.236Z,80.01
2023-03-25T22:07:18.966Z,80.51
2023-03-25T22:09:47.956Z,80.42
2023-03-25T22:12:14.701Z,79.96
2023-03-25T22:14:41.405Z,80.62
2023-03-25T22:17:08.139Z,78.97
2023-03-25T22:19:34.873Z,79.56
2023-03-25T22:22:03.186Z,80.38
2023-03-25T22:24:30.703Z,81.33
2023-03-25T22:26:57.489Z,81.42
2023-03-25T22:29:24.217Z,81.22
2023-03-25T22:31:55.590Z,81.34
2023-03-25T22:34:22.327Z,81.69
2023-03-25T22:36:53.021Z,82.09
2023-03-25T22:39:22.900Z,82.27
2023-03-25T22:41:49.650Z,82.74
2023-03-25T22:44:18.088Z,82.48
2023-03-25T22:46:48.899Z,82.83
2023-03-25T22:49:16.273Z,82.53
2023-03-25T22:51:43.228Z,82.64
2023-03-25T22:54:10.675Z,82.86
2023-03-25T22:56:38.237Z,82.55
2023-03-25T22:59:07.208Z,82.73
2023-03-25T23:01:34.436Z,82.99
2023-03-25T23:04:01.303Z,82.92
2023-03-25T23:06:28.662Z,82.82
2023-03-25T23:09:02.101Z,82.68
2023-03-25T23:11:39.250Z,83.08
2023-03-25T23:14:09.773Z,83.33
2023-03-25T23:16:38.877Z,83.37
2023-03-25T23:19:10.030Z,83.65
2023-03-25T23:21:40.208Z,83.19
2023-03-25T23:24:09.498Z,83.29
2023-03-25T23:26:46.486Z,83.16
2023-03-25T23:29:17.470Z,83.02
2023-03-25T23:31:49.027Z,83.48
2023-03-25T23:34:16.914Z,83.11
2023-03-25T23:36:45.509Z,82.80
2023-03-25T23:39:32.002Z,83.99
2023-03-25T23:42:04.617Z,82.55
2023-03-25T23:44:31.635Z,82.75
2023-03-25T23:46:58.619Z,82.86
2023-03-25T23:49:25.503Z,81.98
2023-03-25T23:51:52.340Z,81.86
2023-03-25T23:54:21.593Z,81.54
2023-03-25T23:56:51.749Z,81.87
2023-03-25T23:59:27.598Z,82.08
